createdAt,value
2018-06-18T00:01:13.743Z,16.20
2018-06-18T00:03:42.268Z,16.20
2018-06-18T00:06:10.650Z,16.20
2018-06-18T00:08:39.091Z,16.10
2018-06-18T00:11:07.470Z,16.10
2018-06-18T00:13:36.002Z,16.10
2018-06-18T00:16:04.339Z,16.10
2018-06-18T00:18:32.834Z,16.10
2018-06-18T00:21:01.282Z,16.00
2018-06-18T00:23:29.909Z,16.00
2018-06-18T00:25:58.236Z,16.00
2018-06-18T00:28:26.573Z,16.00
2018-06-18T00:30:54.949Z,16.00
2018-06-18T00:33:23.881Z,16.00
2018-06-18T00:35:53.113Z,16.00
2018-06-18T00:38:21.604Z,16.00
2018-06-18T00:40:49.951Z,16.00
2018-06-18T00:43:18.467Z,16.00
2018-06-18T00:45:46.829Z,16.00
2018-06-18T00:48:15.184Z,16.10
2018-06-18T00:50:44.361Z,16.10
2018-06-18T00:53:13.316Z,16.00
2018-06-18T00:58:44.380Z,16.10
2018-06-18T01:01:12.763Z,16.10
2018-06-18T01:03:41.074Z,16.10
2018-06-18T01:06:09.471Z,16.10
2018-06-18T01:08:37.868Z,16.10
2018-06-18T01:11:06.271Z,16.10
2018-06-18T01:13:34.608Z,16.10
2018-06-18T01:16:03.745Z,16.10
2018-06-18T01:18:32.090Z,16.00
2018-06-18T01:21:01.413Z,16.10
2018-06-18T01:23:29.750Z,16.00
2018-06-18T01:25:58.116Z,16.10
2018-06-18T01:28:26.440Z,16.10
2018-06-18T01:30:54.776Z,16.00
2018-06-18T01:33:23.217Z,16.00
2018-06-18T01:35:51.582Z,15.90
2018-06-18T01:38:20.154Z,15.90
2018-06-18T01:40:48.567Z,15.90
2018-06-18T01:43:16.896Z,15.90
2018-06-18T01:45:45.253Z,15.80
2018-06-18T01:48:13.631Z,15.80
2018-06-18T01:50:41.979Z,15.80
2018-06-18T01:53:10.313Z,15.90
2018-06-18T01:55:39.422Z,15.90
2018-06-18T01:58:07.762Z,15.90
2018-06-18T02:00:36.217Z,15.90
2018-06-18T02:03:04.709Z,15.90
2018-06-18T02:05:33.037Z,15.90
2018-06-18T02:08:01.388Z,15.90
2018-06-18T02:10:29.853Z,15.90
2018-06-18T02:12:58.198Z,15.90
2018-06-18T02:15:26.597Z,15.90
2018-06-18T02:17:54.952Z,15.90
2018-06-18T02:20:23.273Z,15.80
2018-06-18T02:22:51.624Z,15.90
2018-06-18T02:25:19.987Z,15.80
2018-06-18T02:27:48.345Z,15.90
2018-06-18T02:39:13.105Z,15.80
2018-06-18T02:41:42.230Z,15.80
2018-06-18T02:44:10.583Z,15.80
2018-06-18T02:46:39.907Z,15.90
2018-06-18T02:49:08.337Z,15.80
2018-06-18T02:51:36.774Z,15.80
2018-06-18T02:54:05.118Z,15.80
2018-06-18T02:56:34.337Z,15.80
2018-06-18T02:59:02.684Z,15.80
2018-06-18T03:01:31.102Z,15.80
2018-06-18T03:03:59.439Z,15.80
2018-06-18T03:06:27.881Z,15.80
2018-06-18T03:08:56.209Z,15.80
2018-06-18T03:11:25.412Z,15.80
2018-06-18T03:13:53.831Z,15.80
2018-06-18T03:16:22.184Z,15.70
2018-06-18T03:18:51.484Z,15.80
2018-06-18T03:24:14.930Z,15.70
2018-06-18T03:26:49.106Z,15.70
2018-06-18T03:29:17.460Z,15.80
2018-06-18T03:31:46.900Z,15.80
2018-06-18T03:34:15.225Z,15.80
2018-06-18T03:36:44.381Z,15.80
2018-06-18T03:39:12.741Z,15.80
2018-06-18T03:41:41.081Z,15.80
2018-06-18T03:44:10.291Z,15.80
2018-06-18T03:46:39.424Z,15.80
2018-06-18T03:49:07.769Z,15.80
2018-06-18T03:51:36.873Z,15.90
2018-06-18T03:54:05.211Z,15.90
2018-06-18T03:56:33.561Z,15.80
2018-06-18T03:59:02.039Z,15.90
2018-06-18T04:07:36.119Z,15.90
2018-06-18T04:12:59.579Z,15.90
2018-06-18T04:15:27.950Z,16.00
2018-06-18T04:17:56.302Z,16.00
2018-06-18T04:20:25.416Z,15.90
2018-06-18T04:22:53.770Z,16.00
2018-06-18T04:25:22.937Z,16.00
2018-06-18T04:27:51.458Z,15.90
2018-06-18T04:30:20.768Z,16.00
2018-06-18T04:32:49.096Z,16.00
2018-06-18T04:35:17.546Z,16.00
2018-06-18T04:37:45.968Z,16.10
2018-06-18T04:40:15.016Z,16.10
2018-06-18T04:42:43.361Z,16.10
2018-06-18T04:51:06.090Z,16.20
2018-06-18T04:53:34.436Z,16.20
2018-06-18T04:56:02.845Z,16.20
2018-06-18T04:58:32.042Z,16.20
2018-06-18T05:01:00.449Z,16.20
2018-06-18T05:03:28.901Z,16.20
2018-06-18T05:05:57.278Z,16.20
2018-06-18T05:08:25.628Z,16.20
2018-06-18T05:10:54.830Z,16.30
2018-06-18T05:13:23.957Z,16.30
2018-06-18T05:15:52.311Z,16.30
2018-06-18T05:18:21.454Z,16.30
2018-06-18T05:20:49.787Z,16.30
2018-06-18T05:23:18.920Z,16.40
2018-06-18T05:25:47.281Z,16.40
2018-06-18T05:28:15.761Z,16.50
2018-06-18T05:30:44.117Z,16.50
2018-06-18T05:33:13.361Z,16.70
2018-06-18T05:35:41.687Z,16.60
2018-06-18T05:38:10.910Z,16.80
2018-06-18T05:40:39.247Z,16.80
2018-06-18T05:43:07.579Z,16.80
2018-06-18T05:45:35.948Z,16.90
2018-06-18T05:48:05.064Z,17.00
2018-06-18T05:50:33.582Z,17.00
2018-06-18T05:53:01.868Z,17.00
2018-06-18T05:55:30.212Z,17.10
2018-06-18T05:57:58.578Z,17.20
2018-06-18T06:00:26.929Z,17.20
2018-06-18T06:02:56.097Z,17.20
2018-06-18T06:05:24.553Z,17.20
2018-06-18T06:07:52.922Z,17.30
2018-06-18T06:10:21.270Z,17.40
2018-06-18T06:12:50.422Z,17.50
2018-06-18T06:15:18.746Z,17.50
2018-06-18T06:17:47.145Z,17.60
2018-06-18T06:20:15.482Z,17.60
2018-06-18T06:22:44.123Z,17.60
2018-06-18T06:25:12.445Z,17.60
2018-06-18T06:27:40.869Z,17.70
2018-06-18T06:30:09.232Z,17.80
2018-06-18T06:32:37.632Z,17.90
2018-06-18T06:35:05.966Z,17.80
2018-06-18T06:37:35.376Z,17.90
2018-06-18T06:40:04.762Z,17.90
2018-06-18T06:42:33.121Z,18.00
2018-06-18T06:45:01.467Z,18.00
2018-06-18T06:47:29.814Z,18.10
2018-06-18T06:49:59.023Z,18.30
2018-06-18T06:52:27.392Z,18.30
2018-06-18T06:54:56.841Z,18.30
2018-06-18T06:57:25.216Z,18.30
2018-06-18T06:59:53.588Z,18.40
2018-06-18T07:02:21.949Z,18.30
2018-06-18T07:04:50.349Z,18.40
2018-06-18T07:07:18.699Z,18.50
2018-06-18T07:09:47.820Z,18.50
2018-06-18T07:12:16.172Z,18.50
2018-06-18T07:14:45.287Z,18.70
2018-06-18T07:17:13.647Z,18.70
2018-06-18T07:19:42.800Z,18.90
2018-06-18T07:22:11.138Z,18.80
2018-06-18T07:24:40.583Z,18.90
2018-06-18T07:27:08.965Z,19.00
2018-06-18T07:29:37.301Z,19.10
2018-06-18T07:32:05.738Z,19.10
2018-06-18T07:34:34.098Z,19.10
2018-06-18T07:37:02.437Z,19.10
2018-06-18T07:39:30.796Z,19.10
2018-06-18T07:41:59.915Z,19.10
2018-06-18T07:44:28.377Z,19.10
2018-06-18T07:46:56.798Z,19.30
2018-06-18T07:49:25.169Z,19.40
2018-06-18T07:51:53.557Z,19.40
2018-06-18T07:54:22.050Z,19.50
2018-06-18T07:56:50.508Z,19.40
2018-06-18T07:59:18.923Z,19.40
2018-06-18T08:01:48.176Z,19.40
2018-06-18T08:04:17.389Z,19.60
2018-06-18T08:06:45.869Z,19.60
2018-06-18T08:09:14.471Z,19.50
2018-06-18T08:11:42.851Z,19.50
2018-06-18T08:14:11.209Z,19.30
2018-06-18T08:16:39.592Z,19.20
2018-06-18T08:19:07.975Z,19.10
2018-06-18T08:21:36.279Z,19.10
2018-06-18T08:24:05.155Z,19.10
2018-06-18T08:26:34.646Z,19.20
2018-06-18T08:29:03.037Z,19.30
2018-06-18T08:31:31.442Z,19.40
2018-06-18T08:33:59.804Z,19.50
2018-06-18T08:36:28.133Z,19.40
2018-06-18T08:38:56.484Z,19.40
2018-06-18T08:41:26.042Z,19.50
2018-06-18T08:43:54.441Z,19.50
2018-06-18T08:46:22.907Z,19.40
2018-06-18T08:48:51.261Z,19.40
2018-06-18T09:03:01.552Z,19.30
2018-06-18T09:05:30.150Z,19.30
2018-06-18T09:07:58.472Z,19.50
2018-06-18T09:10:26.852Z,19.60
2018-06-18T09:12:55.177Z,19.90
2018-06-18T09:15:23.628Z,20.00
2018-06-18T09:17:52.138Z,20.00
2018-06-18T09:20:20.601Z,20.00
2018-06-18T09:22:49.008Z,19.90
2018-06-18T09:25:17.371Z,19.90
2018-06-18T09:27:45.713Z,19.90
2018-06-18T09:30:14.227Z,19.80
2018-06-18T09:32:42.716Z,19.90
2018-06-18T09:35:11.001Z,20.00
2018-06-18T09:37:39.357Z,20.00
2018-06-18T09:40:08.304Z,20.10
2018-06-18T09:42:36.637Z,20.30
2018-06-18T09:45:05.032Z,20.50
2018-06-18T09:47:33.349Z,20.60
2018-06-18T09:53:06.562Z,20.60
2018-06-18T09:58:34.354Z,20.70
2018-06-18T10:01:05.223Z,20.40
2018-06-18T10:03:33.597Z,20.40
2018-06-18T10:06:01.962Z,20.40
2018-06-18T10:08:30.425Z,20.20
2018-06-18T10:10:58.720Z,20.00
2018-06-18T10:13:27.083Z,19.90
2018-06-18T10:15:56.194Z,20.10
2018-06-18T10:18:24.560Z,20.10
2018-06-18T10:20:52.902Z,20.40
2018-06-18T10:23:21.262Z,20.70
2018-06-18T10:25:50.055Z,20.80
2018-06-18T10:28:18.391Z,21.00
2018-06-18T10:30:46.751Z,21.20
2018-06-18T10:33:15.097Z,21.20
2018-06-18T10:44:32.320Z,21.10
2018-06-18T10:47:01.585Z,20.90
2018-06-18T10:49:29.946Z,20.90
2018-06-18T10:51:58.294Z,21.00
2018-06-18T10:54:27.565Z,21.20
2018-06-18T10:56:56.118Z,21.20
2018-06-18T10:59:24.451Z,21.30
2018-06-18T11:01:53.559Z,21.20
2018-06-18T11:04:21.909Z,21.20
2018-06-18T11:06:51.262Z,21.00
2018-06-18T11:09:19.623Z,21.00
2018-06-18T11:11:48.018Z,21.20
2018-06-18T11:14:16.362Z,21.60
2018-06-18T11:16:45.693Z,22.50
2018-06-18T11:22:14.515Z,23.10
2018-06-18T11:27:39.902Z,23.20
2018-06-18T11:30:09.086Z,22.80
2018-06-18T11:32:37.447Z,22.80
2018-06-18T11:35:06.618Z,22.70
2018-06-18T11:37:35.087Z,22.80
2018-06-18T11:40:03.439Z,22.70
2018-06-18T11:42:32.550Z,22.70
2018-06-18T11:45:00.942Z,22.80
2018-06-18T11:47:29.333Z,22.70
2018-06-18T11:49:57.675Z,22.70
2018-06-18T11:52:26.964Z,22.60
2018-06-18T11:54:55.305Z,22.60
2018-06-18T11:57:24.438Z,22.80
2018-06-18T11:59:59.187Z,22.70
2018-06-18T12:11:13.984Z,22.20
2018-06-18T12:13:42.412Z,22.20
2018-06-18T12:16:11.386Z,22.10
2018-06-18T12:18:39.738Z,22.10
2018-06-18T12:21:08.095Z,22.00
2018-06-18T12:23:36.781Z,22.00
2018-06-18T12:26:05.186Z,22.10
2018-06-18T12:28:34.341Z,22.30
2018-06-18T12:31:02.693Z,22.20
2018-06-18T12:33:31.067Z,22.30
2018-06-18T12:35:59.397Z,22.40
2018-06-18T12:38:27.805Z,22.70
2018-06-18T12:40:56.938Z,23.30
2018-06-18T12:43:25.300Z,23.30
2018-06-18T12:57:49.341Z,24.80
2018-06-18T13:00:17.710Z,24.70
2018-06-18T13:02:46.046Z,24.70
2018-06-18T13:05:14.422Z,24.60
2018-06-18T13:07:42.878Z,24.50
2018-06-18T13:10:11.313Z,24.40
2018-06-18T13:12:39.678Z,24.40
2018-06-18T13:15:08.018Z,24.20
2018-06-18T13:17:36.959Z,24.20
2018-06-18T13:20:08.945Z,24.20
2018-06-18T13:22:37.280Z,23.90
2018-06-18T13:25:05.724Z,23.70
2018-06-18T13:27:38.704Z,23.20
2018-06-18T13:30:07.551Z,23.20
2018-06-18T13:32:35.897Z,23.00
2018-06-18T13:35:04.331Z,22.90
2018-06-18T13:37:32.651Z,22.70
2018-06-18T13:45:55.024Z,22.40
2018-06-18T13:48:23.362Z,22.50
2018-06-18T13:50:51.820Z,22.30
2018-06-18T13:53:20.234Z,22.30
2018-06-18T13:55:48.682Z,22.30
2018-06-18T13:58:17.021Z,22.40
2018-06-18T14:00:45.379Z,22.50
2018-06-18T14:03:13.721Z,22.70
2018-06-18T14:05:42.074Z,22.70
2018-06-18T14:08:10.539Z,23.00
2018-06-18T14:10:38.914Z,23.00
2018-06-18T14:13:08.147Z,22.90
2018-06-18T14:15:36.482Z,22.90
2018-06-18T14:18:05.617Z,22.70
2018-06-18T14:20:34.030Z,22.70
2018-06-18T14:23:02.417Z,22.60
2018-06-18T14:25:30.756Z,22.50
2018-06-18T14:27:59.130Z,22.40
2018-06-18T14:39:41.869Z,22.10
2018-06-18T14:42:10.994Z,22.10
2018-06-18T14:44:39.374Z,22.10
2018-06-18T14:47:07.721Z,22.20
2018-06-18T14:49:37.042Z,22.40
2018-06-18T14:52:05.372Z,22.40
2018-06-18T14:54:33.727Z,22.50
2018-06-18T14:57:02.116Z,22.50
2018-06-18T14:59:31.123Z,22.50
2018-06-18T15:01:59.500Z,22.50
2018-06-18T15:04:27.839Z,22.40
2018-06-18T15:06:56.233Z,22.40
2018-06-18T15:09:24.656Z,22.30
2018-06-18T15:11:52.985Z,22.20
2018-06-18T15:14:21.338Z,22.10
2018-06-18T15:16:50.493Z,22.00
2018-06-18T15:19:18.936Z,22.00
2018-06-18T15:21:47.244Z,22.00
2018-06-18T15:24:15.649Z,22.00
2018-06-18T15:26:44.121Z,22.00
2018-06-18T15:29:12.470Z,22.00
2018-06-18T15:31:40.809Z,22.10
2018-06-18T15:34:10.035Z,22.10
2018-06-18T15:36:38.648Z,22.00
2018-06-18T15:39:07.094Z,22.00
2018-06-18T15:41:35.503Z,22.00
2018-06-18T15:44:04.046Z,21.90
2018-06-18T15:46:32.533Z,21.80
2018-06-18T15:49:00.883Z,21.90
2018-06-18T15:51:29.229Z,21.80
2018-06-18T15:53:57.571Z,21.80
2018-06-18T15:56:26.798Z,21.80
2018-06-18T15:58:55.883Z,21.80
2018-06-18T16:01:24.284Z,21.80
2018-06-18T16:03:52.673Z,21.80
2018-06-18T16:06:21.023Z,22.00
2018-06-18T16:08:49.423Z,22.10
2018-06-18T16:11:17.859Z,22.30
2018-06-18T16:13:46.189Z,22.50
2018-06-18T16:16:14.552Z,22.70
2018-06-18T16:18:42.934Z,22.80
2018-06-18T16:21:11.312Z,22.80
2018-06-18T16:23:39.718Z,22.90
2018-06-18T16:26:08.205Z,22.80
2018-06-18T16:28:36.551Z,22.70
2018-06-18T16:31:04.926Z,22.70
2018-06-18T16:33:33.338Z,22.60
2018-06-18T16:36:01.680Z,22.50
2018-06-18T16:38:30.030Z,22.40
2018-06-18T16:40:59.158Z,22.30
2018-06-18T16:43:27.597Z,22.30
2018-06-18T16:45:56.723Z,22.10
2018-06-18T16:48:25.125Z,22.10
2018-06-18T16:50:53.466Z,22.10
2018-06-18T16:53:23.387Z,22.00
2018-06-18T16:55:52.469Z,22.00
2018-06-18T16:58:21.653Z,22.00
2018-06-18T17:00:50.040Z,21.90
2018-06-18T17:03:19.291Z,21.90
2018-06-18T17:05:47.662Z,21.90
2018-06-18T17:08:16.212Z,21.80
2018-06-18T17:10:46.071Z,21.70
2018-06-18T17:13:14.405Z,21.70
2018-06-18T17:15:43.548Z,21.60
2018-06-18T17:18:11.958Z,21.60
2018-06-18T17:20:40.298Z,21.60
2018-06-18T17:23:08.646Z,21.50
2018-06-18T17:25:37.773Z,21.40
2018-06-18T17:28:06.150Z,21.40
2018-06-18T17:30:34.492Z,21.30
2018-06-18T17:33:04.559Z,21.30
2018-06-18T17:35:33.129Z,21.30
2018-06-18T17:38:01.530Z,21.20
2018-06-18T17:40:29.846Z,21.10
2018-06-18T17:42:58.958Z,20.90
2018-06-18T17:45:27.386Z,20.90
2018-06-18T17:47:55.817Z,20.90
2018-06-18T17:50:24.109Z,20.80
2018-06-18T17:52:52.521Z,20.70
2018-06-18T17:55:20.866Z,20.70
2018-06-18T17:57:50.032Z,20.70
2018-06-18T18:00:18.373Z,20.70
2018-06-18T18:02:47.678Z,20.70
2018-06-18T18:05:16.075Z,20.70
2018-06-18T18:07:44.430Z,20.70
2018-06-18T18:10:12.881Z,20.60
2018-06-18T18:12:41.226Z,20.60
2018-06-18T18:15:10.438Z,20.70
2018-06-18T18:17:39.555Z,20.70
2018-06-18T18:20:08.094Z,20.70
2018-06-18T18:22:36.539Z,20.80
2018-06-18T18:25:05.755Z,20.80
2018-06-18T18:27:34.112Z,20.70
2018-06-18T18:30:02.452Z,20.70
2018-06-18T18:32:31.631Z,20.70
2018-06-18T18:35:00.585Z,20.70
2018-06-18T18:37:28.941Z,20.70
2018-06-18T18:39:58.171Z,20.70
2018-06-18T18:42:26.518Z,20.60
2018-06-18T18:44:54.910Z,20.60
2018-06-18T18:47:23.275Z,20.60
2018-06-18T18:49:52.383Z,20.50
2018-06-18T18:52:20.750Z,20.50
2018-06-18T18:54:49.806Z,20.50
2018-06-18T19:00:13.328Z,20.40
2018-06-18T19:02:41.754Z,20.30
2018-06-18T19:05:10.138Z,20.30
2018-06-18T19:07:38.650Z,20.30
2018-06-18T19:10:07.253Z,20.30
2018-06-18T19:12:35.739Z,20.30
2018-06-18T19:15:04.866Z,20.10
2018-06-18T19:17:33.207Z,20.10
2018-06-18T19:20:02.321Z,20.00
2018-06-18T19:22:30.863Z,20.00
2018-06-18T19:24:59.718Z,20.00
2018-06-18T19:27:28.081Z,20.00
2018-06-18T19:29:56.800Z,19.90
2018-06-18T19:32:25.159Z,19.90
2018-06-18T19:34:53.746Z,19.90
2018-06-18T19:37:22.259Z,19.80
2018-06-18T19:39:50.684Z,19.80
2018-06-18T19:42:19.801Z,19.70
2018-06-18T19:44:48.164Z,19.70
2018-06-18T19:47:16.515Z,19.70
2018-06-18T19:49:44.892Z,19.70
2018-06-18T19:52:13.316Z,19.70
2018-06-18T19:54:41.704Z,19.70
2018-06-18T19:57:10.060Z,19.70
2018-06-18T19:59:38.429Z,19.60
2018-06-18T20:02:07.608Z,19.60
2018-06-18T20:04:35.964Z,19.60
2018-06-18T20:07:04.456Z,19.50
2018-06-18T20:09:32.763Z,19.50
2018-06-18T20:12:01.990Z,19.50
2018-06-18T20:14:30.340Z,19.40
2018-06-18T20:16:59.503Z,19.40
2018-06-18T20:19:27.839Z,19.40
2018-06-18T20:21:56.351Z,19.40
2018-06-18T20:24:24.691Z,19.30
2018-06-18T20:26:53.052Z,19.30
2018-06-18T20:29:22.155Z,19.20
2018-06-18T20:31:50.604Z,19.20
2018-06-18T20:34:18.914Z,19.20
2018-06-18T20:36:47.748Z,19.20
2018-06-18T20:39:16.085Z,19.10
2018-06-18T20:41:45.218Z,19.10
2018-06-18T20:44:13.605Z,19.00
2018-06-18T20:46:41.982Z,19.00
2018-06-18T20:49:10.581Z,19.00
2018-06-18T20:51:38.944Z,19.00
2018-06-18T20:54:07.447Z,19.00
2018-06-18T20:56:35.923Z,19.00
2018-06-18T20:59:04.259Z,19.00
2018-06-18T21:01:32.616Z,19.00
2018-06-18T21:04:01.798Z,19.00
2018-06-18T21:06:30.274Z,18.90
2018-06-18T21:08:58.828Z,18.90
2018-06-18T21:11:27.193Z,19.00
2018-06-18T21:13:55.544Z,18.90
2018-06-18T21:16:23.905Z,18.90
2018-06-18T21:18:52.258Z,18.90
2018-06-18T21:21:20.599Z,18.90
2018-06-18T21:23:49.150Z,18.90
2018-06-18T21:26:17.475Z,18.90
2018-06-18T21:28:45.819Z,18.90
2018-06-18T21:31:15.032Z,18.90
2018-06-18T21:33:43.364Z,18.90
2018-06-18T21:36:11.719Z,18.90
2018-06-18T21:38:40.134Z,18.90
2018-06-18T21:41:08.670Z,18.90
2018-06-18T21:43:37.044Z,18.80
2018-06-18T21:46:05.661Z,18.80
2018-06-18T21:48:33.982Z,18.80
2018-06-18T21:51:03.107Z,18.70
2018-06-18T21:53:31.485Z,18.70
2018-06-18T21:55:59.871Z,18.70
2018-06-18T21:58:28.237Z,18.70
2018-06-18T22:00:56.618Z,18.70
2018-06-18T22:03:25.036Z,18.60
2018-06-18T22:05:53.408Z,18.60
2018-06-18T22:08:21.792Z,18.60
2018-06-18T22:10:50.396Z,18.70
2018-06-18T22:13:18.718Z,18.70
2018-06-18T22:15:47.095Z,18.70
2018-06-18T22:18:15.624Z,18.70
2018-06-18T22:20:43.977Z,18.70
2018-06-18T22:23:12.342Z,18.60
2018-06-18T22:25:40.691Z,18.60
2018-06-18T22:28:09.330Z,18.70
2018-06-18T22:30:37.890Z,18.70
2018-06-18T22:33:06.258Z,18.60
2018-06-18T22:35:34.673Z,18.60
2018-06-18T22:38:03.208Z,18.60
2018-06-18T22:40:32.382Z,18.60
2018-06-18T22:43:00.750Z,18.60
2018-06-18T22:45:29.285Z,18.60
2018-06-18T22:47:57.642Z,18.60
2018-06-18T22:50:26.883Z,18.50
2018-06-18T22:52:55.273Z,18.40
2018-06-18T22:55:23.622Z,18.20
2018-06-18T22:57:51.994Z,18.10
2018-06-18T23:00:20.713Z,18.00
2018-06-18T23:02:49.151Z,17.90
2018-06-18T23:05:17.542Z,17.80
2018-06-18T23:07:45.952Z,17.80
2018-06-18T23:10:15.190Z,17.70
2018-06-18T23:12:43.694Z,17.70
2018-06-18T23:15:12.817Z,17.70
2018-06-18T23:17:41.360Z,17.70
2018-06-18T23:20:10.612Z,17.60
2018-06-18T23:22:39.177Z,17.50
2018-06-18T23:25:07.543Z,17.50
2018-06-18T23:27:36.133Z,17.50
2018-06-18T23:30:04.525Z,17.50
2018-06-18T23:32:32.883Z,17.50
2018-06-18T23:35:01.226Z,17.40
2018-06-18T23:37:29.662Z,17.40
2018-06-18T23:39:58.004Z,17.40
2018-06-18T23:42:26.404Z,17.40
2018-06-18T23:44:55.731Z,17.30
2018-06-18T23:47:25.115Z,17.30
2018-06-18T23:49:53.502Z,17.30
2018-06-18T23:52:21.859Z,17.30
2018-06-18T23:54:50.267Z,17.30
2018-06-18T23:57:18.635Z,17.20
2018-06-18T23:59:47.005Z,17.20
